createdAt,value
2019-02-14T00:00:03.052Z,2.7
2019-02-14T00:05:02.624Z,2.7
2019-02-14T00:10:03.127Z,2.5
2019-02-14T00:15:02.591Z,2.5
2019-02-14T00:20:02.988Z,2.5
2019-02-14T00:25:02.448Z,2.5
2019-02-14T00:30:02.864Z,2.5
2019-02-14T00:35:03.297Z,2.4
2019-02-14T00:40:02.708Z,2.0
2019-02-14T00:45:03.163Z,2.0
2019-02-14T00:50:02.587Z,2.2
2019-02-14T00:55:02.914Z,2.2
2019-02-14T01:00:03.284Z,2.4
2019-02-14T01:05:02.616Z,2.4
2019-02-14T01:10:03.157Z,2.2
2019-02-14T01:15:02.576Z,2.0
2019-02-14T01:20:03.031Z,2.0
2019-02-14T01:25:02.398Z,1.8
2019-02-14T01:30:02.768Z,1.6
2019-02-14T01:35:03.110Z,1.6
2019-02-14T01:40:02.507Z,1.3
2019-02-14T01:45:02.892Z,1.3
2019-02-14T01:50:03.293Z,1.3
2019-02-14T01:55:01.812Z,1.3
2019-02-14T02:00:03.153Z,1.8
2019-02-14T02:05:02.563Z,1.7
2019-02-14T02:10:03.017Z,1.6
2019-02-14T02:15:02.439Z,1.6
2019-02-14T02:20:02.876Z,1.6
2019-02-14T02:25:03.214Z,1.3
2019-02-14T02:30:02.645Z,1.6
2019-02-14T02:35:03.089Z,1.8
2019-02-14T02:40:02.510Z,1.8
2019-02-14T02:45:02.835Z,1.7
2019-02-14T02:50:03.176Z,1.8
2019-02-14T02:55:02.600Z,1.8
2019-02-14T03:00:03.041Z,1.7
2019-02-14T03:05:02.459Z,1.7
2019-02-14T03:10:02.905Z,1.8
2019-02-14T03:15:03.252Z,1.8
2019-02-14T03:20:02.662Z,1.8
2019-02-14T03:25:03.111Z,1.7
2019-02-14T03:30:02.525Z,1.7
2019-02-14T03:35:02.879Z,1.7
2019-02-14T03:40:03.309Z,1.7
2019-02-14T03:45:02.732Z,1.7
2019-02-14T03:50:03.072Z,1.7
2019-02-14T03:55:02.528Z,1.7
2019-02-14T04:00:02.941Z,1.8
2019-02-14T04:05:03.376Z,1.8
2019-02-14T04:10:02.800Z,1.7
2019-02-14T04:15:03.148Z,1.7
2019-02-14T04:20:02.555Z,1.8
2019-02-14T04:25:02.896Z,1.7
2019-02-14T04:30:02.417Z,1.7
2019-02-14T04:35:02.763Z,1.7
2019-02-14T04:40:03.225Z,1.6
2019-02-14T04:45:02.618Z,1.6
2019-02-14T04:50:02.963Z,1.6
2019-02-14T04:55:03.304Z,1.6
2019-02-14T05:00:02.716Z,1.6
2019-02-14T05:05:03.064Z,1.6
2019-02-14T05:10:02.476Z,1.6
2019-02-14T05:15:02.820Z,1.2
2019-02-14T05:20:03.164Z,1.1
2019-02-14T05:25:02.592Z,0.8
2019-02-14T05:30:03.338Z,0.6
2019-02-14T05:35:02.741Z,0.6
2019-02-14T05:40:03.201Z,0.6
2019-02-14T05:45:02.618Z,0.7
2019-02-14T05:50:02.944Z,0.8
2019-02-14T05:55:03.299Z,1.1
2019-02-14T06:00:02.704Z,0.8
2019-02-14T06:05:03.059Z,1.1
2019-02-14T06:10:02.573Z,1.1
2019-02-14T06:15:02.929Z,0.8
2019-02-14T06:20:03.361Z,0.8
2019-02-14T06:25:02.794Z,0.8
2019-02-14T06:30:03.219Z,0.8
2019-02-14T06:35:02.540Z,0.8
2019-02-14T06:40:02.999Z,0.8
2019-02-14T06:45:02.415Z,1.1
2019-02-14T06:50:02.854Z,1.1
2019-02-14T06:55:03.184Z,1.1
2019-02-14T07:00:01.792Z,1.2
2019-02-14T07:05:03.261Z,1.1
2019-02-14T07:10:02.664Z,1.1
2019-02-14T07:15:03.019Z,1.1
2019-02-14T07:20:02.431Z,1.1
2019-02-14T07:25:02.787Z,1.1
2019-02-14T07:30:03.224Z,0.8
2019-02-14T07:35:02.525Z,0.8
2019-02-14T07:40:02.976Z,0.8
2019-02-14T07:45:02.400Z,1.1
2019-02-14T07:50:02.741Z,1.1
2019-02-14T07:55:03.218Z,1.1
2019-02-14T08:00:02.590Z,1.3
2019-02-14T08:05:03.046Z,1.3
2019-02-14T08:10:02.461Z,1.3
2019-02-14T08:15:02.804Z,1.7
2019-02-14T08:20:03.155Z,1.7
2019-02-14T08:25:02.570Z,2.0
2019-02-14T08:30:03.008Z,2.9
2019-02-14T08:35:02.431Z,3.2
2019-02-14T08:40:02.828Z,3.5
2019-02-14T08:45:03.215Z,3.7
2019-02-14T08:50:02.626Z,4.5
2019-02-14T08:55:02.985Z,4.8
2019-02-14T09:00:02.389Z,4.5
2019-02-14T09:05:02.743Z,5.0
2019-02-14T09:10:03.176Z,5.8
2019-02-14T09:15:02.591Z,6.0
2019-02-14T09:20:03.034Z,6.0
2019-02-14T09:25:02.464Z,6.4
2019-02-14T09:30:03.023Z,6.6
2019-02-14T09:35:02.424Z,7.0
2019-02-14T09:40:02.873Z,7.1
2019-02-14T09:45:03.309Z,7.4
2019-02-14T09:50:02.724Z,7.6
2019-02-14T09:55:03.082Z,7.9
2019-02-14T10:00:02.515Z,7.0
2019-02-14T10:05:02.940Z,7.0
2019-02-14T10:10:02.399Z,7.9
2019-02-14T10:15:02.798Z,8.0
2019-02-14T10:20:02.432Z,8.8
2019-02-14T10:25:02.862Z,9.8
2019-02-14T10:30:03.327Z,9.8
2019-02-14T10:35:02.710Z,10.3
2019-02-14T10:40:03.164Z,9.8
2019-02-14T10:45:02.493Z,10.1
2019-02-14T10:50:02.927Z,9.6
2019-02-14T10:55:03.584Z,10.8
2019-02-14T11:00:02.993Z,10.1
2019-02-14T11:05:02.422Z,10.1
2019-02-14T11:10:02.810Z,10.6
2019-02-14T11:15:03.195Z,10.6
2019-02-14T11:20:02.617Z,10.6
2019-02-14T11:25:02.966Z,10.6
2019-02-14T11:30:02.379Z,11.0
2019-02-14T11:35:02.713Z,10.3
2019-02-14T11:40:03.164Z,10.3
2019-02-14T11:45:02.577Z,11.1
2019-02-14T11:50:03.024Z,11.1
2019-02-14T11:55:02.444Z,11.8
2019-02-14T12:00:02.786Z,11.3
2019-02-14T12:05:03.127Z,11.6
2019-02-14T12:10:02.535Z,11.1
2019-02-14T12:15:02.896Z,11.6
2019-02-14T12:20:03.232Z,10.8
2019-02-14T12:25:02.662Z,11.3
2019-02-14T12:30:03.031Z,11.6
2019-02-14T12:35:02.415Z,11.6
2019-02-14T12:40:02.893Z,11.1
2019-02-14T12:45:03.318Z,10.8
2019-02-14T12:50:02.714Z,11.8
2019-02-14T12:55:02.406Z,12.3
2019-02-14T13:00:02.772Z,11.3
2019-02-14T13:05:03.132Z,12.1
2019-02-14T13:10:02.629Z,12.3
2019-02-14T13:15:02.992Z,12.8
2019-02-14T13:20:02.334Z,12.8
2019-02-14T13:25:02.741Z,13.1
2019-02-14T13:30:03.183Z,13.5
2019-02-14T13:35:02.530Z,13.1
2019-02-14T13:40:02.977Z,13.3
2019-02-14T13:45:02.370Z,14.3
2019-02-14T13:50:02.804Z,14.5
2019-02-14T13:55:03.149Z,13.5
2019-02-14T14:00:02.563Z,14.3
2019-02-14T14:05:02.917Z,13.6
2019-02-14T14:10:02.328Z,13.6
2019-02-14T14:15:02.777Z,14.0
2019-02-14T14:20:03.216Z,14.3
2019-02-14T14:25:02.632Z,13.8
2019-02-14T14:30:02.970Z,13.1
2019-02-14T14:35:02.392Z,13.6
2019-02-14T14:40:02.832Z,13.5
2019-02-14T14:45:03.221Z,14.3
2019-02-14T14:50:02.590Z,14.3
2019-02-14T14:55:03.042Z,15.0
2019-02-14T15:00:02.366Z,14.3
2019-02-14T15:05:02.806Z,14.8
2019-02-14T15:10:03.246Z,13.6
2019-02-14T15:15:02.662Z,13.6
2019-02-14T15:20:03.006Z,13.3
2019-02-14T15:25:02.425Z,13.8
2019-02-14T15:30:01.965Z,14.3
2019-02-14T15:35:02.346Z,13.6
2019-02-14T15:40:09.407Z,12.8
2019-02-14T15:45:03.280Z,13.6
2019-02-14T15:50:04.354Z,13.8
2019-02-14T15:55:02.319Z,12.3
2019-02-14T16:00:04.767Z,11.3
2019-02-14T16:05:02.493Z,11.0
2019-02-14T16:10:05.427Z,10.6
2019-02-14T16:15:04.421Z,10.3
2019-02-14T16:20:02.601Z,10.1
2019-02-14T16:25:04.578Z,10.0
2019-02-14T16:30:04.857Z,9.8
2019-02-14T16:35:02.897Z,9.6
2019-02-14T16:40:03.347Z,9.1
2019-02-14T16:45:02.753Z,8.8
2019-02-14T16:50:03.089Z,8.5
2019-02-14T16:55:02.513Z,8.5
2019-02-14T17:00:02.858Z,8.0
2019-02-14T17:05:03.204Z,7.5
2019-02-14T17:10:02.607Z,7.4
2019-02-14T17:15:02.964Z,6.9
2019-02-14T17:20:02.377Z,6.6
2019-02-14T17:25:02.719Z,6.6
2019-02-14T17:30:03.164Z,6.1
2019-02-14T17:35:02.571Z,6.0
2019-02-14T17:40:03.017Z,5.9
2019-02-14T17:45:02.469Z,5.9
2019-02-14T17:50:02.886Z,5.4
2019-02-14T17:55:03.230Z,5.4
2019-02-14T18:00:02.640Z,5.0
2019-02-14T18:05:02.203Z,5.0
2019-02-14T18:10:02.609Z,4.8
2019-02-14T18:15:02.952Z,4.8
2019-02-14T18:20:03.395Z,4.5
2019-02-14T18:25:02.721Z,4.5
2019-02-14T18:30:03.160Z,4.3
2019-02-14T18:35:02.600Z,4.3
2019-02-14T18:40:03.191Z,4.0
2019-02-14T18:45:02.531Z,4.0
2019-02-14T18:50:02.899Z,3.7
2019-02-14T18:55:03.324Z,3.7
2019-02-14T19:00:02.739Z,3.7
2019-02-14T19:05:03.083Z,3.7
2019-02-14T19:10:02.498Z,3.5
2019-02-14T19:15:02.845Z,3.5
2019-02-14T19:20:03.289Z,3.5
2019-02-14T19:25:02.816Z,3.2
2019-02-14T19:30:03.156Z,3.2
2019-02-14T19:35:02.577Z,3.2
2019-02-14T19:40:03.005Z,3.2
2019-02-14T19:45:02.441Z,3.2
2019-02-14T19:50:02.909Z,3.2
2019-02-14T19:55:03.326Z,3.2
2019-02-14T20:00:06.917Z,3.2
2019-02-14T20:05:03.285Z,3.2
2019-02-14T20:10:02.719Z,3.0
2019-02-14T20:15:03.250Z,2.7
2019-02-14T20:20:02.703Z,2.5
2019-02-14T20:25:03.114Z,2.7
2019-02-14T20:30:02.441Z,2.7
2019-02-14T20:35:02.801Z,2.7
2019-02-14T20:40:02.508Z,2.7
2019-02-14T20:45:03.161Z,2.7
2019-02-14T20:50:02.592Z,2.9
2019-02-14T20:55:03.072Z,2.7
2019-02-14T21:00:02.558Z,2.5
2019-02-14T21:05:02.968Z,2.5
2019-02-14T21:10:02.419Z,2.4
2019-02-14T21:15:02.873Z,2.2
2019-02-14T21:20:03.272Z,2.2
2019-02-14T21:25:02.748Z,2.0
2019-02-14T21:30:03.146Z,2.2
2019-02-14T21:35:02.749Z,2.0
2019-02-14T21:40:03.317Z,2.0
2019-02-14T21:45:02.751Z,1.8
2019-02-14T21:50:03.252Z,1.8
2019-02-14T21:55:02.734Z,1.7
2019-02-14T22:00:03.217Z,1.8
2019-02-14T22:05:02.657Z,1.7
2019-02-14T22:10:03.105Z,1.3
2019-02-14T22:15:02.527Z,1.6
2019-02-14T22:20:02.963Z,1.6
2019-02-14T22:25:03.306Z,1.7
2019-02-14T22:30:02.716Z,1.3
2019-02-14T22:35:03.064Z,1.3
2019-02-14T22:40:02.477Z,1.3
2019-02-14T22:45:02.923Z,1.2
2019-02-14T22:50:03.281Z,1.1
2019-02-14T22:55:02.682Z,1.1
2019-02-14T23:00:03.130Z,1.1
2019-02-14T23:05:02.548Z,1.1
2019-02-14T23:10:02.991Z,1.2
2019-02-14T23:15:02.324Z,1.3
2019-02-14T23:20:02.747Z,2.0
2019-02-14T23:25:03.192Z,2.0
2019-02-14T23:30:02.613Z,1.7
2019-02-14T23:35:02.989Z,2.0
2019-02-14T23:40:02.470Z,2.0
2019-02-14T23:45:02.815Z,1.8
2019-02-14T23:50:03.153Z,1.7
2019-02-14T23:55:02.565Z,1.6
